Time;durP1;ratioP1;P1;durP2;ratioP2;P2;SDS_P1;SDS_P2;PMS_P1;PMS_P2;Temp;Humidity;BMP_temperature;BMP_pressure;BME280_temperature;BME280_humidity;BME280_pressure;Samples;Min_cycle;Max_cycle;Signal;HPM_P1;HPM_P2
2023/10/25 00:02:11;;;;;;;38.97;17.33;;;;;;;;;;4983461;28;20028;-70
2023/10/25 00:04:36;;;;;;;38.85;17.27;;;;;;;;;;5017029;28;20445;-71
2023/10/25 00:07:01;;;;;;;41.40;17.13;;;;;;;;;;4999760;28;20026;-70
2023/10/25 00:09:26;;;;;;;43.10;16.45;;;;;;;;;;5017104;28;20049;-70
2023/10/25 00:11:53;;;;;;;40.90;16.38;;;;;;;;;;4999510;28;20026;-71
2023/10/25 00:14:19;;;;;;;36.20;16.90;;;;;;;;;;4999300;28;20029;-71
2023/10/25 00:16:44;;;;;;;39.58;15.93;;;;;;;;;;5017334;28;20067;-70
2023/10/25 00:19:10;;;;;;;37.80;17.17;;;;;;;;;;5017051;28;20021;-70
2023/10/25 00:21:35;;;;;;;39.17;17.63;;;;;;;;;;5016886;28;20376;-71
2023/10/25 00:24:00;;;;;;;39.92;18.23;;;;;;;;;;5016368;28;20372;-71
2023/10/25 00:26:26;;;;;;;41.58;16.23;;;;;;;;;;5017327;28;20026;-70
2023/10/25 00:28:51;;;;;;;45.80;17.33;;;;;;;;;;5017150;28;20113;-70
2023/10/25 00:31:16;;;;;;;36.75;16.05;;;;;;;;;;5016553;28;20041;-70
2023/10/25 00:33:41;;;;;;;40.95;18.50;;;;;;;;;;5000141;28;20030;-70
2023/10/25 00:36:07;;;;;;;42.85;17.45;;;;;;;;;;5016657;28;20032;-70
2023/10/25 00:38:32;;;;;;;39.85;16.35;;;;;;;;;;5016171;28;20026;-71
2023/10/25 00:40:57;;;;;;;40.35;16.63;;;;;;;;;;4999095;28;20018;-70
2023/10/25 00:43:24;;;;;;;39.05;15.05;;;;;;;;;;5012297;28;20434;-73
2023/10/25 00:46:12;;;;;;;38.65;17.38;;;;;;;;;;4982674;28;20384;-71
2023/10/25 00:48:38;;;;;;;38.70;15.65;;;;;;;;;;4995595;28;20127;-71
2023/10/25 00:51:04;;;;;;;38.63;16.13;;;;;;;;;;4997390;28;20025;-71
2023/10/25 00:53:31;;;;;;;40.22;17.67;;;;;;;;;;4994621;28;20368;-71
2023/10/25 00:55:58;;;;;;;40.35;16.42;;;;;;;;;;4998538;28;20106;-72
2023/10/25 00:58:23;;;;;;;36.35;16.15;;;;;;;;;;5015207;28;20521;-71
2023/10/25 01:00:50;;;;;;;40.35;17.77;;;;;;;;;;5012345;28;20034;-71
2023/10/25 01:03:16;;;;;;;32.88;14.93;;;;;;;;;;4998607;28;20030;-71
2023/10/25 01:05:42;;;;;;;38.85;14.43;;;;;;;;;;4982274;28;20091;-71
2023/10/25 01:08:08;;;;;;;39.35;15.63;;;;;;;;;;4999025;28;20025;-70
2023/10/25 01:10:33;;;;;;;41.10;16.15;;;;;;;;;;5015692;28;20076;-72
2023/10/25 01:12:58;;;;;;;34.90;15.32;;;;;;;;;;5012290;28;20510;-72
2023/10/25 01:15:23;;;;;;;37.92;15.45;;;;;;;;;;5015452;28;20101;-70
2023/10/25 01:17:49;;;;;;;40.28;15.30;;;;;;;;;;5013939;28;20026;-72
2023/10/25 01:20:14;;;;;;;37.13;14.05;;;;;;;;;;5015074;28;20017;-72
2023/10/25 01:22:39;;;;;;;33.70;14.93;;;;;;;;;;5015649;28;20033;-71
2023/10/25 01:25:05;;;;;;;32.30;14.35;;;;;;;;;;5015738;28;20218;-71
2023/10/25 01:27:30;;;;;;;33.55;14.75;;;;;;;;;;4998259;28;20036;-71
2023/10/25 01:29:56;;;;;;;33.42;15.05;;;;;;;;;;5015084;28;20038;-71
2023/10/25 01:33:16;;;;;;;31.40;15.00;;;;;;;;;;5015563;28;20026;-71
2023/10/25 01:35:41;;;;;;;34.38;14.05;;;;;;;;;;5015575;28;20050;-70
2023/10/25 01:38:06;;;;;;;29.65;13.13;;;;;;;;;;5015392;28;20084;-71
2023/10/25 01:40:32;;;;;;;33.38;13.70;;;;;;;;;;5015463;28;20033;-71
2023/10/25 01:42:57;;;;;;;32.90;13.60;;;;;;;;;;4997337;28;20041;-71
2023/10/25 01:45:23;;;;;;;30.85;12.07;;;;;;;;;;5015332;28;20021;-71
2023/10/25 01:47:49;;;;;;;28.23;13.48;;;;;;;;;;4997791;28;20390;-71
2023/10/25 01:50:14;;;;;;;28.40;11.43;;;;;;;;;;4997185;28;20076;-72
2023/10/25 01:52:40;;;;;;;29.73;12.25;;;;;;;;;;4992778;28;20093;-71
2023/10/25 01:55:05;;;;;;;27.95;12.27;;;;;;;;;;4995900;28;20027;-71
2023/10/25 01:57:31;;;;;;;32.03;13.88;;;;;;;;;;4984247;28;20475;-71
2023/10/25 01:59:56;;;;;;;37.22;13.05;;;;;;;;;;5015612;28;20062;-71
2023/10/25 02:02:22;;;;;;;35.08;14.57;;;;;;;;;;5013368;28;20025;-72
2023/10/25 02:04:47;;;;;;;31.77;13.85;;;;;;;;;;4994899;28;20498;-71
2023/10/25 02:07:12;;;;;;;30.52;11.90;;;;;;;;;;4997142;28;20028;-71
2023/10/25 02:09:38;;;;;;;32.75;13.32;;;;;;;;;;4996542;28;20021;-72
2023/10/25 02:12:03;;;;;;;35.40;15.10;;;;;;;;;;5014838;28;20510;-71
2023/10/25 02:14:29;;;;;;;32.08;13.57;;;;;;;;;;4996822;28;20125;-71
2023/10/25 02:16:54;;;;;;;38.30;14.63;;;;;;;;;;4996872;28;20030;-71
2023/10/25 02:19:19;;;;;;;35.97;13.73;;;;;;;;;;5014468;28;20021;-71
2023/10/25 02:21:45;;;;;;;32.42;14.40;;;;;;;;;;4994163;28;20549;-72
2023/10/25 02:24:12;;;;;;;32.63;14.05;;;;;;;;;;5014643;28;20606;-71
2023/10/25 02:26:37;;;;;;;31.48;13.65;;;;;;;;;;5013948;28;20072;-72
2023/10/25 02:29:02;;;;;;;37.63;13.90;;;;;;;;;;4993352;28;20109;-72
2023/10/25 02:31:28;;;;;;;37.35;14.50;;;;;;;;;;4980582;28;20112;-71
2023/10/25 02:33:53;;;;;;;37.85;13.23;;;;;;;;;;4996665;28;20097;-71
2023/10/25 02:36:18;;;;;;;32.22;13.75;;;;;;;;;;5013673;28;20029;-71
2023/10/25 02:38:47;;;;;;;32.55;14.07;;;;;;;;;;5013201;28;20027;-72
2023/10/25 02:41:12;;;;;;;33.42;13.93;;;;;;;;;;4979374;28;20022;-72
2023/10/25 02:43:38;;;;;;;38.53;12.57;;;;;;;;;;4976983;28;20023;-72
2023/10/25 02:46:05;;;;;;;33.25;14.00;;;;;;;;;;4985310;28;20041;-71
2023/10/25 02:48:31;;;;;;;36.53;14.93;;;;;;;;;;4989529;28;20026;-72
2023/10/25 02:50:59;;;;;;;32.63;15.13;;;;;;;;;;4996250;28;20390;-71
2023/10/25 02:53:24;;;;;;;35.70;14.05;;;;;;;;;;4996540;28;20557;-71
2023/10/25 02:55:49;;;;;;;34.45;15.38;;;;;;;;;;5013921;28;20029;-71
2023/10/25 02:58:15;;;;;;;29.65;13.98;;;;;;;;;;4996413;28;20105;-72
2023/10/25 03:00:40;;;;;;;35.45;14.27;;;;;;;;;;4995627;28;20034;-72
2023/10/25 03:03:06;;;;;;;36.17;15.48;;;;;;;;;;5013915;28;20072;-71
2023/10/25 03:05:31;;;;;;;33.42;13.35;;;;;;;;;;5005810;28;20034;-71
2023/10/25 03:07:57;;;;;;;32.22;14.20;;;;;;;;;;4994149;28;20101;-71
2023/10/25 03:10:22;;;;;;;36.67;14.50;;;;;;;;;;5005393;28;20026;-71
2023/10/25 03:12:48;;;;;;;31.17;14.77;;;;;;;;;;5013173;28;20037;-72
2023/10/25 03:15:13;;;;;;;36.60;15.00;;;;;;;;;;5013359;28;20022;-71
2023/10/25 03:17:38;;;;;;;35.22;14.88;;;;;;;;;;5013840;28;20026;-72
2023/10/25 03:20:04;;;;;;;35.45;16.15;;;;;;;;;;4995755;28;20075;-72
2023/10/25 03:22:30;;;;;;;41.92;15.13;;;;;;;;;;5000986;28;20076;-71
2023/10/25 03:24:57;;;;;;;35.10;14.80;;;;;;;;;;4976586;28;20141;-71
2023/10/25 03:27:22;;;;;;;34.00;15.02;;;;;;;;;;4997748;28;20029;-71
2023/10/25 03:29:47;;;;;;;32.80;13.90;;;;;;;;;;4995785;28;20026;-71
2023/10/25 03:32:12;;;;;;;42.42;18.13;;;;;;;;;;5013413;28;20387;-71
2023/10/25 03:34:38;;;;;;;38.20;15.68;;;;;;;;;;5011997;28;20030;-71
2023/10/25 03:37:03;;;;;;;35.17;14.55;;;;;;;;;;5004126;28;20026;-71
2023/10/25 03:39:28;;;;;;;42.00;18.58;;;;;;;;;;4995797;28;20391;-71
2023/10/25 03:41:54;;;;;;;37.08;15.07;;;;;;;;;;5011096;28;20029;-71
2023/10/25 03:44:19;;;;;;;35.08;14.45;;;;;;;;;;4996244;28;20113;-71
2023/10/25 03:46:44;;;;;;;38.80;15.88;;;;;;;;;;4992294;28;20030;-71
2023/10/25 03:49:09;;;;;;;38.00;15.65;;;;;;;;;;4995507;28;20021;-71
2023/10/25 03:51:35;;;;;;;36.72;15.13;;;;;;;;;;5013385;28;20033;-71
2023/10/25 03:54:00;;;;;;;40.25;15.25;;;;;;;;;;5013519;28;20045;-71
2023/10/25 03:56:25;;;;;;;36.63;15.57;;;;;;;;;;4992008;28;20107;-72
2023/10/25 03:58:51;;;;;;;31.95;14.45;;;;;;;;;;4997630;28;20074;-71
2023/10/25 04:01:16;;;;;;;36.72;14.82;;;;;;;;;;4993443;28;20018;-71
2023/10/25 04:03:41;;;;;;;39.35;16.20;;;;;;;;;;4988016;28;20033;-71
2023/10/25 04:06:07;;;;;;;38.92;15.25;;;;;;;;;;4995637;28;20140;-71
2023/10/25 04:08:33;;;;;;;34.47;13.73;;;;;;;;;;4979000;28;20033;-71
2023/10/25 04:10:58;;;;;;;38.53;14.98;;;;;;;;;;4995568;28;20030;-71
2023/10/25 04:13:24;;;;;;;32.22;14.00;;;;;;;;;;4995544;28;20022;-71
2023/10/25 04:16:09;;;;;;;36.65;14.75;;;;;;;;;;4995635;28;20041;-71
2023/10/25 04:18:35;;;;;;;38.03;14.43;;;;;;;;;;4996286;28;20041;-71
2023/10/25 04:21:01;;;;;;;43.72;15.60;;;;;;;;;;4995081;28;20030;-71
2023/10/25 04:23:28;;;;;;;35.03;13.73;;;;;;;;;;4995664;28;20053;-71
2023/10/25 04:26:05;;;;;;;35.25;14.38;;;;;;;;;;5010591;28;20030;-71
2023/10/25 04:28:31;;;;;;;32.28;15.20;;;;;;;;;;5016614;28;20050;-71
2023/10/25 04:30:56;;;;;;;32.47;15.50;;;;;;;;;;4996466;28;20486;-71
2023/10/25 04:33:22;;;;;;;38.03;15.48;;;;;;;;;;4998208;28;20038;-71
2023/10/25 04:35:47;;;;;;;41.55;14.80;;;;;;;;;;5015911;28;20029;-71
2023/10/25 04:38:12;;;;;;;45.63;16.88;;;;;;;;;;4998572;28;20505;-71
2023/10/25 04:40:37;;;;;;;35.72;14.07;;;;;;;;;;4998729;28;20030;-71
2023/10/25 04:43:03;;;;;;;35.03;14.73;;;;;;;;;;4998701;28;20018;-71
2023/10/25 04:45:29;;;;;;;31.88;13.43;;;;;;;;;;4998687;28;20105;-71
2023/10/25 04:47:54;;;;;;;36.00;13.98;;;;;;;;;;5016252;28;20014;-71
2023/10/25 04:50:20;;;;;;;31.42;14.07;;;;;;;;;;4997586;28;20030;-72
2023/10/25 04:52:46;;;;;;;35.28;14.90;;;;;;;;;;5014548;28;20029;-72
2023/10/25 04:55:11;;;;;;;37.25;15.35;;;;;;;;;;5000664;28;20037;-72
2023/10/25 04:57:36;;;;;;;39.67;16.23;;;;;;;;;;4995655;28;20114;-72
2023/10/25 05:00:03;;;;;;;39.85;15.63;;;;;;;;;;5002787;28;20022;-71
2023/10/25 05:02:28;;;;;;;41.03;14.77;;;;;;;;;;5003985;28;20051;-72
2023/10/25 05:04:53;;;;;;;39.03;14.90;;;;;;;;;;5015701;28;20026;-72
2023/10/25 05:07:19;;;;;;;34.45;14.45;;;;;;;;;;5015932;28;20081;-71
2023/10/25 05:09:44;;;;;;;38.65;15.30;;;;;;;;;;4998009;28;20053;-71
2023/10/25 05:12:13;;;;;;;34.15;14.35;;;;;;;;;;5015924;28;20041;-71
2023/10/25 05:14:39;;;;;;;36.15;16.30;;;;;;;;;;4989654;28;20109;-71
2023/10/25 05:17:06;;;;;;;37.53;14.77;;;;;;;;;;4997940;28;20064;-71
2023/10/25 05:19:32;;;;;;;38.10;15.77;;;;;;;;;;5013209;28;20026;-71
2023/10/25 05:21:59;;;;;;;40.22;14.45;;;;;;;;;;5015318;28;20100;-71
2023/10/25 05:24:25;;;;;;;38.08;16.60;;;;;;;;;;5015783;28;20018;-71
2023/10/25 05:26:50;;;;;;;39.22;14.52;;;;;;;;;;5015824;28;20025;-71
2023/10/25 05:29:16;;;;;;;41.63;15.98;;;;;;;;;;5015606;28;20049;-71
2023/10/25 05:31:42;;;;;;;42.83;16.90;;;;;;;;;;4997281;28;20025;-72
2023/10/25 05:34:09;;;;;;;43.70;17.08;;;;;;;;;;4997732;28;20496;-72
2023/10/25 05:36:34;;;;;;;40.35;15.15;;;;;;;;;;4997917;28;20034;-71
2023/10/25 05:39:02;;;;;;;48.13;17.98;;;;;;;;;;5013027;28;20048;-71
2023/10/25 05:41:30;;;;;;;43.05;15.40;;;;;;;;;;4997278;28;20033;-72
2023/10/25 05:44:07;;;;;;;41.17;17.30;;;;;;;;;;4978275;28;20030;-71
2023/10/25 05:46:33;;;;;;;47.03;18.58;;;;;;;;;;4993953;28;20399;-71
2023/10/25 05:48:58;;;;;;;45.42;15.45;;;;;;;;;;5014820;28;20028;-72
2023/10/25 05:51:24;;;;;;;47.38;17.15;;;;;;;;;;5012557;28;20022;-72
2023/10/25 05:53:49;;;;;;;40.20;15.35;;;;;;;;;;5015376;28;20029;-71
2023/10/25 05:56:16;;;;;;;47.40;16.00;;;;;;;;;;5014853;28;20022;-71
2023/10/25 05:58:41;;;;;;;46.55;16.85;;;;;;;;;;5014977;28;20061;-71
2023/10/25 06:01:08;;;;;;;45.58;16.58;;;;;;;;;;5015214;28;20054;-71
2023/10/25 06:03:35;;;;;;;43.33;16.27;;;;;;;;;;4996700;28;20033;-72
2023/10/25 06:06:01;;;;;;;41.05;15.75;;;;;;;;;;4997190;28;20506;-71
2023/10/25 06:08:27;;;;;;;50.55;17.90;;;;;;;;;;4997138;28;20029;-72
2023/10/25 06:10:52;;;;;;;45.67;16.52;;;;;;;;;;4996883;28;20022;-71
2023/10/25 06:13:18;;;;;;;51.03;16.98;;;;;;;;;;4997218;28;20034;-72
2023/10/25 06:15:44;;;;;;;47.42;17.45;;;;;;;;;;5014550;28;20080;-71
2023/10/25 06:18:10;;;;;;;52.10;16.80;;;;;;;;;;4996402;28;20037;-71
2023/10/25 06:20:35;;;;;;;45.22;19.83;;;;;;;;;;5014375;28;20398;-72
2023/10/25 06:23:01;;;;;;;43.90;16.45;;;;;;;;;;5014565;28;20029;-71
2023/10/25 06:25:27;;;;;;;49.70;17.48;;;;;;;;;;5013977;28;20029;-71
2023/10/25 06:27:52;;;;;;;46.28;16.33;;;;;;;;;;4980812;28;20032;-71
2023/10/25 06:30:18;;;;;;;41.40;16.33;;;;;;;;;;4996002;28;20030;-71
2023/10/25 06:32:43;;;;;;;43.08;15.27;;;;;;;;;;4992654;28;20149;-71
2023/10/25 06:35:08;;;;;;;47.92;16.08;;;;;;;;;;4996742;28;20113;-71
2023/10/25 06:37:34;;;;;;;43.65;17.80;;;;;;;;;;4992405;28;20521;-71
2023/10/25 06:39:59;;;;;;;45.85;17.98;;;;;;;;;;4994761;28;20030;-71
2023/10/25 06:42:25;;;;;;;45.70;17.90;;;;;;;;;;4997691;28;20021;-71
2023/10/25 06:44:51;;;;;;;53.45;17.30;;;;;;;;;;5011006;28;20030;-71
2023/10/25 06:47:16;;;;;;;46.38;17.95;;;;;;;;;;4996396;28;20057;-71
2023/10/25 06:49:42;;;;;;;51.42;18.17;;;;;;;;;;4995553;28;20034;-71
2023/10/25 06:52:08;;;;;;;48.05;17.08;;;;;;;;;;4996468;28;20030;-71
2023/10/25 06:54:33;;;;;;;52.47;19.25;;;;;;;;;;5014048;28;20026;-71
2023/10/25 06:56:59;;;;;;;50.38;20.50;;;;;;;;;;5010419;28;20372;-71
2023/10/25 06:59:24;;;;;;;46.28;18.65;;;;;;;;;;4998655;28;20049;-72
2023/10/25 07:01:53;;;;;;;48.60;19.63;;;;;;;;;;4994428;28;20072;-72
2023/10/25 07:04:20;;;;;;;46.88;18.63;;;;;;;;;;4981013;28;20030;-71
2023/10/25 07:06:46;;;;;;;54.10;17.58;;;;;;;;;;4960226;28;20033;-71
2023/10/25 07:09:14;;;;;;;52.38;17.60;;;;;;;;;;4983276;28;20482;-71
2023/10/25 07:11:40;;;;;;;53.33;18.60;;;;;;;;;;4996420;28;20104;-71
2023/10/25 07:14:05;;;;;;;50.47;19.27;;;;;;;;;;5013573;28;20537;-71
2023/10/25 07:16:30;;;;;;;53.65;19.00;;;;;;;;;;5013250;28;20025;-71
2023/10/25 07:18:55;;;;;;;55.72;20.15;;;;;;;;;;5013692;28;20076;-71
2023/10/25 07:21:21;;;;;;;55.60;18.90;;;;;;;;;;5013578;28;20475;-71
2023/10/25 07:23:46;;;;;;;64.90;22.38;;;;;;;;;;4996245;28;20088;-71
2023/10/25 07:26:11;;;;;;;52.97;20.23;;;;;;;;;;5012702;28;20390;-71
2023/10/25 07:28:37;;;;;;;50.50;17.40;;;;;;;;;;5012291;28;20483;-71
2023/10/25 07:31:02;;;;;;;52.95;18.88;;;;;;;;;;5012517;28;20044;-71
2023/10/25 07:33:29;;;;;;;64.22;19.92;;;;;;;;;;4979885;28;20072;-71
2023/10/25 07:35:54;;;;;;;58.10;19.85;;;;;;;;;;4995443;28;20036;-71
2023/10/25 07:38:19;;;;;;;54.42;19.52;;;;;;;;;;5013934;28;20038;-71
2023/10/25 07:40:44;;;;;;;59.20;20.70;;;;;;;;;;5013078;28;20084;-71
2023/10/25 07:43:10;;;;;;;51.25;18.50;;;;;;;;;;4995964;28;20042;-71
2023/10/25 07:45:35;;;;;;;61.67;21.77;;;;;;;;;;5012929;28;20130;-71
2023/10/25 07:48:00;;;;;;;53.00;19.60;;;;;;;;;;5013245;28;20021;-71
2023/10/25 07:50:25;;;;;;;48.42;18.10;;;;;;;;;;5013834;28;20034;-71
2023/10/25 07:52:51;;;;;;;57.65;19.73;;;;;;;;;;4995502;28;20026;-70
2023/10/25 07:55:17;;;;;;;57.75;19.30;;;;;;;;;;5013120;28;20120;-71
2023/10/25 07:57:42;;;;;;;61.13;21.05;;;;;;;;;;4978519;28;20022;-71
2023/10/25 08:00:09;;;;;;;53.22;19.60;;;;;;;;;;4995833;28;20410;-71
2023/10/25 08:02:35;;;;;;;52.88;19.75;;;;;;;;;;4997937;28;20052;-70
2023/10/25 08:05:00;;;;;;;55.22;19.23;;;;;;;;;;4999327;28;20105;-70
2023/10/25 08:07:26;;;;;;;54.05;18.58;;;;;;;;;;5016664;28;20026;-70
2023/10/25 08:09:51;;;;;;;54.67;19.20;;;;;;;;;;4999394;28;20034;-71
2023/10/25 08:12:17;;;;;;;50.63;20.55;;;;;;;;;;4999129;28;20064;-70
2023/10/25 08:14:42;;;;;;;54.22;19.08;;;;;;;;;;4999377;28;20022;-70
2023/10/25 08:17:07;;;;;;;56.10;19.75;;;;;;;;;;5016637;28;20033;-71
2023/10/25 08:19:33;;;;;;;60.70;19.48;;;;;;;;;;4982909;28;20029;-71
2023/10/25 08:21:59;;;;;;;54.10;19.23;;;;;;;;;;5016146;28;20117;-71
2023/10/25 08:24:24;;;;;;;56.53;19.73;;;;;;;;;;4998939;28;20025;-71
2023/10/25 08:26:51;;;;;;;51.72;21.42;;;;;;;;;;5016712;28;20459;-71
2023/10/25 08:29:16;;;;;;;53.33;18.08;;;;;;;;;;5016368;28;20022;-70
2023/10/25 08:31:46;;;;;;;49.78;19.00;;;;;;;;;;5015984;28;20096;-70
2023/10/25 08:34:12;;;;;;;47.65;18.45;;;;;;;;;;5016708;28;20018;-71
2023/10/25 08:36:37;;;;;;;50.05;20.98;;;;;;;;;;4976373;28;20550;-70
2023/10/25 08:39:04;;;;;;;53.35;22.05;;;;;;;;;;4996695;28;20058;-70
2023/10/25 08:41:30;;;;;;;55.83;20.05;;;;;;;;;;4996495;28;20050;-71
2023/10/25 08:43:57;;;;;;;50.22;19.27;;;;;;;;;;4979137;28;20036;-70
2023/10/25 08:46:23;;;;;;;47.53;18.45;;;;;;;;;;4979102;28;20023;-70
2023/10/25 08:48:50;;;;;;;49.35;19.48;;;;;;;;;;5003660;28;20034;-70
2023/10/25 08:51:15;;;;;;;54.22;19.40;;;;;;;;;;4996153;28;20096;-71
2023/10/25 08:53:41;;;;;;;52.15;20.77;;;;;;;;;;4982017;28;20022;-70
2023/10/25 08:56:07;;;;;;;51.72;19.60;;;;;;;;;;4978864;28;20026;-70
2023/10/25 08:58:33;;;;;;;47.80;19.05;;;;;;;;;;4987312;28;20487;-71
2023/10/25 09:00:58;;;;;;;50.20;20.33;;;;;;;;;;5015487;28;20030;-71
2023/10/25 09:03:32;;;;;;;40.95;16.83;;;;;;;;;;5015902;28;20033;-70
2023/10/25 09:06:08;;;;;;;40.50;16.88;;;;;;;;;;5016021;28;20374;-70
2023/10/25 09:08:34;;;;;;;47.83;18.50;;;;;;;;;;5015676;28;20030;-71
2023/10/25 09:11:08;;;;;;;44.00;18.70;;;;;;;;;;4997755;28;20029;-71
2023/10/25 09:13:35;;;;;;;39.58;18.45;;;;;;;;;;4997746;28;20113;-71
2023/10/25 09:16:10;;;;;;;42.67;17.10;;;;;;;;;;4997822;28;20022;-70
2023/10/25 09:18:38;;;;;;;37.85;17.58;;;;;;;;;;4981496;28;20037;-70
2023/10/25 09:21:04;;;;;;;36.15;16.55;;;;;;;;;;5015068;28;20161;-70
2023/10/25 09:23:30;;;;;;;36.65;16.15;;;;;;;;;;4997913;28;20494;-71
2023/10/25 09:25:58;;;;;;;36.25;15.50;;;;;;;;;;4997897;28;20658;-70
2023/10/25 09:28:27;;;;;;;35.42;15.15;;;;;;;;;;5015763;28;20018;-71
2023/10/25 09:30:54;;;;;;;36.67;16.25;;;;;;;;;;4997143;28;20040;-70
2023/10/25 09:33:19;;;;;;;35.97;16.08;;;;;;;;;;4981201;28;20029;-71
2023/10/25 09:35:44;;;;;;;40.15;15.73;;;;;;;;;;4994492;28;20059;-70
2023/10/25 09:38:10;;;;;;;34.60;16.73;;;;;;;;;;4974783;28;20030;-72
2023/10/25 09:40:38;;;;;;;37.83;16.42;;;;;;;;;;4992171;28;20672;-71
2023/10/25 09:43:07;;;;;;;37.88;16.67;;;;;;;;;;4999716;28;20026;-71
2023/10/25 09:45:33;;;;;;;39.80;15.40;;;;;;;;;;4996498;28;20030;-71
2023/10/25 09:48:05;;;;;;;34.13;15.45;;;;;;;;;;4991573;28;20054;-71
2023/10/25 09:50:33;;;;;;;26.85;13.15;;;;;;;;;;4976404;28;20101;-71
2023/10/25 09:53:05;;;;;;;32.78;14.85;;;;;;;;;;4987415;28;20022;-71
2023/10/25 09:55:31;;;;;;;28.83;13.90;;;;;;;;;;5013485;28;20018;-70
2023/10/25 09:57:57;;;;;;;29.08;14.10;;;;;;;;;;4979784;28;20029;-71
2023/10/25 10:00:22;;;;;;;31.45;15.27;;;;;;;;;;4996012;28;20113;-71
2023/10/25 10:02:58;;;;;;;33.95;14.07;;;;;;;;;;4995698;28;20112;-71
2023/10/25 10:05:41;;;;;;;32.60;13.77;;;;;;;;;;4996279;28;20021;-71
2023/10/25 10:08:16;;;;;;;33.08;14.90;;;;;;;;;;4996061;28;20033;-71
2023/10/25 10:10:59;;;;;;;34.30;16.67;;;;;;;;;;4986699;28;20403;-72
2023/10/25 10:13:26;;;;;;;31.38;14.02;;;;;;;;;;4990314;28;20022;-71
2023/10/25 10:16:01;;;;;;;37.72;14.82;;;;;;;;;;4996409;28;20497;-71
2023/10/25 10:18:47;;;;;;;32.35;14.23;;;;;;;;;;4980418;28;20609;-71
2023/10/25 10:21:14;;;;;;;32.15;13.38;;;;;;;;;;5013241;28;20050;-71
2023/10/25 10:23:43;;;;;;;32.13;13.38;;;;;;;;;;5013306;28;20113;-71
2023/10/25 10:26:09;;;;;;;33.25;14.13;;;;;;;;;;4995236;28;20021;-71
2023/10/25 10:28:42;;;;;;;30.30;14.55;;;;;;;;;;4995090;28;20022;-71
2023/10/25 10:31:08;;;;;;;30.58;13.05;;;;;;;;;;4995837;28;20057;-71
2023/10/25 10:33:42;;;;;;;33.72;13.38;;;;;;;;;;4978886;28;20041;-71
2023/10/25 10:36:07;;;;;;;34.38;14.82;;;;;;;;;;4995788;28;20029;-71
2023/10/25 10:39:13;;;;;;;32.03;14.10;;;;;;;;;;5012482;28;20506;-73
2023/10/25 10:41:40;;;;;;;29.77;13.15;;;;;;;;;;5011896;28;20030;-71
2023/10/25 10:44:05;;;;;;;24.25;11.52;;;;;;;;;;5010637;28;20060;-71
2023/10/25 10:46:31;;;;;;;33.13;13.02;;;;;;;;;;4995384;28;20026;-71
2023/10/25 10:49:00;;;;;;;32.78;13.68;;;;;;;;;;4995067;28;20033;-71
2023/10/25 10:51:27;;;;;;;29.75;11.82;;;;;;;;;;5013084;28;20483;-71
2023/10/25 10:53:52;;;;;;;32.20;13.30;;;;;;;;;;4995106;28;20036;-71
2023/10/25 10:56:17;;;;;;;30.38;13.18;;;;;;;;;;5013021;28;20475;-71
2023/10/25 10:58:43;;;;;;;31.25;13.75;;;;;;;;;;4994588;28;20050;-72
2023/10/25 11:01:09;;;;;;;28.75;12.90;;;;;;;;;;4995301;28;20462;-71
2023/10/25 11:03:36;;;;;;;24.88;11.90;;;;;;;;;;4995346;28;20099;-71
2023/10/25 11:06:03;;;;;;;29.33;12.80;;;;;;;;;;4995476;28;20029;-71
2023/10/25 11:08:29;;;;;;;26.88;12.38;;;;;;;;;;4994584;28;20022;-71
2023/10/25 11:10:54;;;;;;;25.42;11.18;;;;;;;;;;5012433;28;20025;-71
2023/10/25 11:13:20;;;;;;;26.85;11.63;;;;;;;;;;5012265;28;20083;-71
2023/10/25 11:15:45;;;;;;;31.33;13.23;;;;;;;;;;5013059;28;20030;-71
2023/10/25 11:18:10;;;;;;;30.23;13.80;;;;;;;;;;5012465;28;20109;-70
2023/10/25 11:20:36;;;;;;;27.38;11.88;;;;;;;;;;4995447;28;20029;-71
2023/10/25 11:23:03;;;;;;;25.30;11.90;;;;;;;;;;4994817;28;20498;-71
2023/10/25 11:25:29;;;;;;;25.52;11.00;;;;;;;;;;4994847;28;20117;-71
2023/10/25 11:27:56;;;;;;;25.17;11.98;;;;;;;;;;5012981;28;20028;-71
2023/10/25 11:30:21;;;;;;;30.25;12.63;;;;;;;;;;5012357;28;20501;-71
2023/10/25 11:32:47;;;;;;;31.17;12.43;;;;;;;;;;4995373;28;20033;-71
2023/10/25 11:35:21;;;;;;;24.23;11.18;;;;;;;;;;5012313;28;20264;-70
2023/10/25 11:37:46;;;;;;;24.15;10.57;;;;;;;;;;4998684;28;20268;-71
2023/10/25 11:40:12;;;;;;;25.05;12.90;;;;;;;;;;4999304;28;20061;-69
2023/10/25 11:42:37;;;;;;;22.17;11.02;;;;;;;;;;4998641;28;20022;-69
2023/10/25 11:45:06;;;;;;;23.08;10.80;;;;;;;;;;5016487;28;20017;-69
2023/10/25 11:47:32;;;;;;;24.17;10.77;;;;;;;;;;4999105;28;20032;-69
2023/10/25 11:49:58;;;;;;;20.13;10.00;;;;;;;;;;5016139;28;20022;-69
2023/10/25 11:52:25;;;;;;;20.10;10.50;;;;;;;;;;5016513;28;20025;-69
2023/10/25 11:54:55;;;;;;;23.38;11.32;;;;;;;;;;4999103;28;20026;-68
2023/10/25 11:57:30;;;;;;;22.08;10.65;;;;;;;;;;4999574;28;20022;-68
2023/10/25 11:59:56;;;;;;;21.05;9.75;;;;;;;;;;4999254;28;20064;-68
2023/10/25 12:02:26;;;;;;;16.48;9.25;;;;;;;;;;4998898;28;20030;-68
2023/10/25 12:04:55;;;;;;;18.52;9.07;;;;;;;;;;5015880;28;20045;-69
2023/10/25 12:07:21;;;;;;;17.73;9.02;;;;;;;;;;5016325;28;20033;-68
2023/10/25 12:09:47;;;;;;;23.92;10.00;;;;;;;;;;4998879;28;20061;-71
2023/10/25 12:12:12;;;;;;;17.25;10.60;;;;;;;;;;5016521;28;20427;-73
2023/10/25 12:14:38;;;;;;;21.65;11.02;;;;;;;;;;4999016;28;20030;-73
2023/10/25 12:17:05;;;;;;;22.23;10.15;;;;;;;;;;4998095;28;20061;-73
2023/10/25 12:19:30;;;;;;;22.73;11.10;;;;;;;;;;4998522;28;20021;-74
2023/10/25 12:21:58;;;;;;;23.83;11.35;;;;;;;;;;4998777;28;20092;-74
2023/10/25 12:24:26;;;;;;;19.90;10.30;;;;;;;;;;5015694;28;20030;-73
2023/10/25 12:26:52;;;;;;;23.00;10.05;;;;;;;;;;5016286;28;20053;-73
2023/10/25 12:29:17;;;;;;;16.23;9.23;;;;;;;;;;4998667;28;20788;-73
2023/10/25 12:31:43;;;;;;;20.65;10.82;;;;;;;;;;4997868;28;20030;-75
2023/10/25 12:34:08;;;;;;;16.05;10.50;;;;;;;;;;4998593;28;20025;-76
2023/10/25 12:36:33;;;;;;;21.75;9.95;;;;;;;;;;5015509;28;20053;-75
2023/10/25 12:38:59;;;;;;;24.15;12.07;;;;;;;;;;5015614;28;20022;-74
2023/10/25 12:41:24;;;;;;;18.98;10.63;;;;;;;;;;4998069;28;20032;-70
2023/10/25 12:43:49;;;;;;;18.40;10.05;;;;;;;;;;5015085;28;20105;-70
2023/10/25 12:46:15;;;;;;;18.88;11.10;;;;;;;;;;5015548;28;20391;-71
2023/10/25 12:48:40;;;;;;;18.33;9.57;;;;;;;;;;5014392;28;20022;-70
2023/10/25 12:51:06;;;;;;;18.05;9.68;;;;;;;;;;5015146;28;20036;-70
2023/10/25 12:53:31;;;;;;;17.30;9.20;;;;;;;;;;4997897;28;20032;-71
2023/10/25 12:55:56;;;;;;;19.80;9.50;;;;;;;;;;5015299;28;20443;-71
2023/10/25 12:58:22;;;;;;;16.08;9.20;;;;;;;;;;4997691;28;20101;-71
2023/10/25 13:00:48;;;;;;;17.95;9.60;;;;;;;;;;5015678;28;20407;-71
2023/10/25 13:03:13;;;;;;;20.25;10.93;;;;;;;;;;5015333;28;20026;-71
2023/10/25 13:05:39;;;;;;;18.70;10.35;;;;;;;;;;4997458;28;20052;-69
2023/10/25 13:08:04;;;;;;;20.30;10.90;;;;;;;;;;5015060;28;20037;-69
2023/10/25 13:10:29;;;;;;;23.83;10.45;;;;;;;;;;5014673;28;20053;-69
2023/10/25 13:12:55;;;;;;;21.52;9.65;;;;;;;;;;5014797;28;20029;-69
2023/10/25 13:15:20;;;;;;;19.63;10.13;;;;;;;;;;4997418;28;20021;-69
2023/10/25 13:17:45;;;;;;;17.67;9.43;;;;;;;;;;4980604;28;20052;-69
2023/10/25 13:20:14;;;;;;;17.88;9.27;;;;;;;;;;5014700;28;20071;-69
2023/10/25 13:22:40;;;;;;;18.40;9.65;;;;;;;;;;5014775;28;20026;-71
2023/10/25 13:25:05;;;;;;;16.05;8.35;;;;;;;;;;5014611;28;20176;-73
2023/10/25 13:27:31;;;;;;;18.60;9.05;;;;;;;;;;4996579;28;20510;-71
2023/10/25 13:29:56;;;;;;;19.48;8.02;;;;;;;;;;4996827;28;20076;-71
2023/10/25 13:32:24;;;;;;;17.15;9.25;;;;;;;;;;5014250;28;20394;-71
2023/10/25 13:34:49;;;;;;;16.65;8.40;;;;;;;;;;5022551;23;20393;-69
2023/10/25 13:37:14;;;;;;;19.08;8.60;;;;;;;;;;4993528;28;20041;-70
2023/10/25 13:39:40;;;;;;;18.20;8.65;;;;;;;;;;4994773;28;20104;-69
2023/10/25 13:42:06;;;;;;;19.70;9.35;;;;;;;;;;4994977;28;20398;-69
2023/10/25 13:44:31;;;;;;;21.02;9.57;;;;;;;;;;4994850;28;20053;-69
2023/10/25 13:46:56;;;;;;;16.95;9.43;;;;;;;;;;4995087;28;20077;-69
2023/10/25 13:49:21;;;;;;;16.70;9.27;;;;;;;;;;4995035;28;20502;-69
2023/10/25 13:51:47;;;;;;;15.73;8.98;;;;;;;;;;4994434;28;20026;-72
2023/10/25 13:54:12;;;;;;;16.48;8.50;;;;;;;;;;4995136;28;20045;-71
2023/10/25 13:56:37;;;;;;;20.60;9.52;;;;;;;;;;4994683;28;20025;-71
2023/10/25 13:59:03;;;;;;;18.88;9.27;;;;;;;;;;4977073;28;20037;-71
2023/10/25 14:01:28;;;;;;;17.55;9.15;;;;;;;;;;4994801;28;20026;-71
2023/10/25 14:03:53;;;;;;;23.42;10.07;;;;;;;;;;4994669;28;20506;-71
2023/10/25 14:06:19;;;;;;;19.15;9.20;;;;;;;;;;4993889;28;20476;-71
2023/10/25 14:08:45;;;;;;;23.55;9.25;;;;;;;;;;4994453;28;20034;-72
2023/10/25 14:11:10;;;;;;;18.60;10.07;;;;;;;;;;4994663;28;20019;-71
2023/10/25 14:13:35;;;;;;;18.33;9.10;;;;;;;;;;4994156;28;20069;-71
2023/10/25 14:16:08;;;;;;;22.85;10.40;;;;;;;;;;4991513;28;20033;-73